sensor_id;sensor_type;location;lat;lon;timestamp;P1;durP1;ratioP1;P2;durP2;ratioP2
2646;SDS011;1333;50.958;6.770;2022-12-07T00:01:39;15.60;;;11.00;;
2646;SDS011;1333;50.958;6.770;2022-12-07T00:04:06;20.83;;;10.67;;
2646;SDS011;1333;50.958;6.770;2022-12-07T00:06:35;17.83;;;11.57;;
2646;SDS011;1333;50.958;6.770;2022-12-07T00:09:03;16.50;;;11.70;;
2646;SDS011;1333;50.958;6.770;2022-12-07T00:11:29;13.87;;;10.43;;
2646;SDS011;1333;50.958;6.770;2022-12-07T00:13:56;17.37;;;11.43;;
2646;SDS011;1333;50.958;6.770;2022-12-07T00:16:24;17.30;;;12.10;;
2646;SDS011;1333;50.958;6.770;2022-12-07T00:18:51;17.83;;;12.07;;
2646;SDS011;1333;50.958;6.770;2022-12-07T00:21:21;27.80;;;12.00;;
2646;SDS011;1333;50.958;6.770;2022-12-07T00:23:49;20.93;;;11.43;;
2646;SDS011;1333;50.958;6.770;2022-12-07T00:26:20;16.40;;;11.10;;
2646;SDS011;1333;50.958;6.770;2022-12-07T00:28:55;17.00;;;10.43;;
2646;SDS011;1333;50.958;6.770;2022-12-07T00:31:24;22.33;;;10.53;;
2646;SDS011;1333;50.958;6.770;2022-12-07T00:33:51;14.63;;;9.70;;
2646;SDS011;1333;50.958;6.770;2022-12-07T00:36:17;21.40;;;12.53;;
2646;SDS011;1333;50.958;6.770;2022-12-07T00:38:44;18.83;;;11.13;;
2646;SDS011;1333;50.958;6.770;2022-12-07T00:41:14;20.73;;;12.73;;
2646;SDS011;1333;50.958;6.770;2022-12-07T00:43:43;19.47;;;12.97;;
2646;SDS011;1333;50.958;6.770;2022-12-07T00:46:10;19.77;;;12.73;;
2646;SDS011;1333;50.958;6.770;2022-12-07T00:48:37;15.90;;;11.10;;
2646;SDS011;1333;50.958;6.770;2022-12-07T00:51:03;25.20;;;12.20;;
2646;SDS011;1333;50.958;6.770;2022-12-07T00:53:29;19.10;;;13.50;;
2646;SDS011;1333;50.958;6.770;2022-12-07T00:55:55;17.07;;;10.40;;
2646;SDS011;1333;50.958;6.770;2022-12-07T00:58:21;21.33;;;10.77;;
2646;SDS011;1333;50.958;6.770;2022-12-07T01:00:47;18.10;;;10.87;;
2646;SDS011;1333;50.958;6.770;2022-12-07T01:03:13;17.13;;;12.77;;
2646;SDS011;1333;50.958;6.770;2022-12-07T01:05:39;16.50;;;13.30;;
2646;SDS011;1333;50.958;6.770;2022-12-07T01:08:05;18.47;;;11.90;;
2646;SDS011;1333;50.958;6.770;2022-12-07T01:10:31;18.90;;;12.70;;
2646;SDS011;1333;50.958;6.770;2022-12-07T01:12:58;17.47;;;11.17;;
2646;SDS011;1333;50.958;6.770;2022-12-07T01:15:24;20.87;;;14.00;;
2646;SDS011;1333;50.958;6.770;2022-12-07T01:17:50;16.23;;;10.90;;
2646;SDS011;1333;50.958;6.770;2022-12-07T01:20:15;17.43;;;12.83;;
2646;SDS011;1333;50.958;6.770;2022-12-07T01:22:42;17.03;;;12.00;;
2646;SDS011;1333;50.958;6.770;2022-12-07T01:25:09;19.70;;;13.03;;
2646;SDS011;1333;50.958;6.770;2022-12-07T01:27:35;27.57;;;12.10;;
2646;SDS011;1333;50.958;6.770;2022-12-07T01:30:02;17.60;;;12.23;;
2646;SDS011;1333;50.958;6.770;2022-12-07T01:32:29;18.00;;;12.50;;
2646;SDS011;1333;50.958;6.770;2022-12-07T01:34:55;17.33;;;11.70;;
2646;SDS011;1333;50.958;6.770;2022-12-07T01:37:21;16.77;;;11.67;;
2646;SDS011;1333;50.958;6.770;2022-12-07T01:39:50;20.63;;;13.30;;
2646;SDS011;1333;50.958;6.770;2022-12-07T01:42:16;18.60;;;11.67;;
2646;SDS011;1333;50.958;6.770;2022-12-07T01:47:43;16.87;;;12.20;;
2646;SDS011;1333;50.958;6.770;2022-12-07T01:50:30;15.63;;;11.57;;
2646;SDS011;1333;50.958;6.770;2022-12-07T01:52:58;17.07;;;12.30;;
2646;SDS011;1333;50.958;6.770;2022-12-07T01:55:27;18.47;;;11.13;;
2646;SDS011;1333;50.958;6.770;2022-12-07T01:57:53;18.23;;;12.73;;
2646;SDS011;1333;50.958;6.770;2022-12-07T02:00:19;17.67;;;10.23;;
2646;SDS011;1333;50.958;6.770;2022-12-07T02:02:47;20.93;;;12.73;;
2646;SDS011;1333;50.958;6.770;2022-12-07T02:05:16;17.23;;;11.83;;
2646;SDS011;1333;50.958;6.770;2022-12-07T02:07:43;27.27;;;13.43;;
2646;SDS011;1333;50.958;6.770;2022-12-07T02:12:46;14.80;;;12.37;;
2646;SDS011;1333;50.958;6.770;2022-12-07T02:15:16;19.40;;;12.67;;
2646;SDS011;1333;50.958;6.770;2022-12-07T02:18:04;20.03;;;12.03;;
2646;SDS011;1333;50.958;6.770;2022-12-07T02:23:23;20.00;;;10.90;;
2646;SDS011;1333;50.958;6.770;2022-12-07T02:26:12;17.47;;;11.93;;
2646;SDS011;1333;50.958;6.770;2022-12-07T02:31:43;23.40;;;12.70;;
2646;SDS011;1333;50.958;6.770;2022-12-07T02:34:51;18.33;;;11.63;;
2646;SDS011;1333;50.958;6.770;2022-12-07T02:39:59;20.93;;;12.97;;
2646;SDS011;1333;50.958;6.770;2022-12-07T02:42:32;25.00;;;13.37;;
2646;SDS011;1333;50.958;6.770;2022-12-07T02:45:03;25.27;;;12.33;;
2646;SDS011;1333;50.958;6.770;2022-12-07T02:47:31;23.97;;;12.97;;
2646;SDS011;1333;50.958;6.770;2022-12-07T02:50:02;20.37;;;13.30;;
2646;SDS011;1333;50.958;6.770;2022-12-07T02:52:31;21.63;;;12.53;;
2646;SDS011;1333;50.958;6.770;2022-12-07T02:54:57;19.87;;;13.80;;
2646;SDS011;1333;50.958;6.770;2022-12-07T02:57:27;21.40;;;13.40;;
2646;SDS011;1333;50.958;6.770;2022-12-07T03:00:20;20.67;;;11.47;;
2646;SDS011;1333;50.958;6.770;2022-12-07T03:05:39;20.20;;;14.20;;
2646;SDS011;1333;50.958;6.770;2022-12-07T03:08:14;25.70;;;14.97;;
2646;SDS011;1333;50.958;6.770;2022-12-07T03:10:58;16.50;;;11.90;;
2646;SDS011;1333;50.958;6.770;2022-12-07T03:13:27;26.07;;;13.43;;
2646;SDS011;1333;50.958;6.770;2022-12-07T03:16:14;19.83;;;12.73;;
2646;SDS011;1333;50.958;6.770;2022-12-07T03:18:46;21.00;;;16.67;;
2646;SDS011;1333;50.958;6.770;2022-12-07T03:21:17;18.93;;;12.40;;
2646;SDS011;1333;50.958;6.770;2022-12-07T03:23:48;24.63;;;15.73;;
2646;SDS011;1333;50.958;6.770;2022-12-07T03:26:18;25.77;;;15.00;;
2646;SDS011;1333;50.958;6.770;2022-12-07T03:28:48;22.70;;;14.03;;
2646;SDS011;1333;50.958;6.770;2022-12-07T03:31:19;20.20;;;13.00;;
2646;SDS011;1333;50.958;6.770;2022-12-07T03:36:54;21.17;;;14.80;;
2646;SDS011;1333;50.958;6.770;2022-12-07T03:39:41;19.47;;;13.87;;
2646;SDS011;1333;50.958;6.770;2022-12-07T03:42:21;18.80;;;13.60;;
2646;SDS011;1333;50.958;6.770;2022-12-07T03:44:47;22.93;;;14.43;;
2646;SDS011;1333;50.958;6.770;2022-12-07T03:47:26;20.60;;;14.00;;
2646;SDS011;1333;50.958;6.770;2022-12-07T03:50:10;20.40;;;12.03;;
2646;SDS011;1333;50.958;6.770;2022-12-07T03:52:47;26.40;;;13.07;;
2646;SDS011;1333;50.958;6.770;2022-12-07T03:58:16;22.33;;;12.77;;
2646;SDS011;1333;50.958;6.770;2022-12-07T04:00:46;20.90;;;14.00;;
2646;SDS011;1333;50.958;6.770;2022-12-07T04:03:13;22.67;;;14.00;;
2646;SDS011;1333;50.958;6.770;2022-12-07T04:05:39;19.23;;;12.83;;
2646;SDS011;1333;50.958;6.770;2022-12-07T04:08:05;16.37;;;11.63;;
2646;SDS011;1333;50.958;6.770;2022-12-07T04:10:31;26.03;;;15.50;;
2646;SDS011;1333;50.958;6.770;2022-12-07T04:12:57;21.73;;;14.50;;
2646;SDS011;1333;50.958;6.770;2022-12-07T04:15:22;23.63;;;12.47;;
2646;SDS011;1333;50.958;6.770;2022-12-07T04:17:48;22.53;;;13.60;;
2646;SDS011;1333;50.958;6.770;2022-12-07T04:20:13;28.30;;;13.00;;
2646;SDS011;1333;50.958;6.770;2022-12-07T04:22:39;25.77;;;15.00;;
2646;SDS011;1333;50.958;6.770;2022-12-07T04:25:05;18.97;;;12.30;;
2646;SDS011;1333;50.958;6.770;2022-12-07T04:27:30;21.40;;;14.50;;
2646;SDS011;1333;50.958;6.770;2022-12-07T04:29:56;20.50;;;14.30;;
2646;SDS011;1333;50.958;6.770;2022-12-07T04:32:22;22.63;;;14.53;;
2646;SDS011;1333;50.958;6.770;2022-12-07T04:34:49;22.63;;;14.33;;
2646;SDS011;1333;50.958;6.770;2022-12-07T04:37:14;26.60;;;14.47;;
2646;SDS011;1333;50.958;6.770;2022-12-07T04:39:40;18.10;;;12.97;;
2646;SDS011;1333;50.958;6.770;2022-12-07T04:42:05;23.03;;;13.10;;
2646;SDS011;1333;50.958;6.770;2022-12-07T04:44:31;25.80;;;13.77;;
2646;SDS011;1333;50.958;6.770;2022-12-07T04:46:56;24.10;;;15.10;;
2646;SDS011;1333;50.958;6.770;2022-12-07T04:49:22;15.27;;;11.30;;
2646;SDS011;1333;50.958;6.770;2022-12-07T04:51:49;28.13;;;14.47;;
2646;SDS011;1333;50.958;6.770;2022-12-07T04:54:14;16.93;;;12.07;;
2646;SDS011;1333;50.958;6.770;2022-12-07T04:56:41;18.27;;;12.37;;
2646;SDS011;1333;50.958;6.770;2022-12-07T04:59:07;28.03;;;14.03;;
2646;SDS011;1333;50.958;6.770;2022-12-07T05:01:33;17.93;;;10.90;;
2646;SDS011;1333;50.958;6.770;2022-12-07T05:03:58;20.97;;;11.93;;
2646;SDS011;1333;50.958;6.770;2022-12-07T05:06:24;18.63;;;12.17;;
2646;SDS011;1333;50.958;6.770;2022-12-07T05:08:50;24.97;;;14.73;;
2646;SDS011;1333;50.958;6.770;2022-12-07T05:11:15;21.23;;;12.87;;
2646;SDS011;1333;50.958;6.770;2022-12-07T05:13:59;25.97;;;14.70;;
2646;SDS011;1333;50.958;6.770;2022-12-07T05:16:26;25.87;;;15.27;;
2646;SDS011;1333;50.958;6.770;2022-12-07T05:18:51;20.57;;;13.60;;
2646;SDS011;1333;50.958;6.770;2022-12-07T05:21:17;20.60;;;13.87;;
2646;SDS011;1333;50.958;6.770;2022-12-07T05:23:43;19.70;;;13.80;;
2646;SDS011;1333;50.958;6.770;2022-12-07T05:26:08;24.03;;;15.60;;
2646;SDS011;1333;50.958;6.770;2022-12-07T05:28:34;25.07;;;13.60;;
2646;SDS011;1333;50.958;6.770;2022-12-07T05:31:00;23.67;;;13.53;;
2646;SDS011;1333;50.958;6.770;2022-12-07T05:33:26;22.27;;;15.80;;
2646;SDS011;1333;50.958;6.770;2022-12-07T05:35:51;23.57;;;14.43;;
2646;SDS011;1333;50.958;6.770;2022-12-07T05:38:17;23.33;;;14.97;;
2646;SDS011;1333;50.958;6.770;2022-12-07T05:40:43;22.30;;;14.33;;
2646;SDS011;1333;50.958;6.770;2022-12-07T05:43:09;24.93;;;15.50;;
2646;SDS011;1333;50.958;6.770;2022-12-07T05:45:35;23.97;;;13.77;;
2646;SDS011;1333;50.958;6.770;2022-12-07T05:48:01;24.90;;;15.80;;
2646;SDS011;1333;50.958;6.770;2022-12-07T05:50:26;24.10;;;14.40;;
2646;SDS011;1333;50.958;6.770;2022-12-07T05:52:53;20.20;;;13.60;;
2646;SDS011;1333;50.958;6.770;2022-12-07T05:55:18;31.17;;;15.10;;
2646;SDS011;1333;50.958;6.770;2022-12-07T05:57:44;23.33;;;14.20;;
2646;SDS011;1333;50.958;6.770;2022-12-07T06:00:29;19.90;;;14.00;;
2646;SDS011;1333;50.958;6.770;2022-12-07T06:02:55;21.97;;;14.23;;
2646;SDS011;1333;50.958;6.770;2022-12-07T06:05:21;23.53;;;13.47;;
2646;SDS011;1333;50.958;6.770;2022-12-07T06:07:46;21.50;;;14.20;;
2646;SDS011;1333;50.958;6.770;2022-12-07T06:10:12;25.37;;;14.83;;
2646;SDS011;1333;50.958;6.770;2022-12-07T06:12:37;30.10;;;14.40;;
2646;SDS011;1333;50.958;6.770;2022-12-07T06:15:04;25.80;;;14.53;;
2646;SDS011;1333;50.958;6.770;2022-12-07T06:17:31;21.70;;;14.13;;
2646;SDS011;1333;50.958;6.770;2022-12-07T06:19:57;22.43;;;14.07;;
2646;SDS011;1333;50.958;6.770;2022-12-07T06:22:22;24.80;;;14.77;;
2646;SDS011;1333;50.958;6.770;2022-12-07T06:24:48;21.73;;;14.47;;
2646;SDS011;1333;50.958;6.770;2022-12-07T06:27:13;20.57;;;12.90;;
2646;SDS011;1333;50.958;6.770;2022-12-07T06:29:39;36.87;;;15.40;;
2646;SDS011;1333;50.958;6.770;2022-12-07T06:32:04;27.13;;;14.10;;
2646;SDS011;1333;50.958;6.770;2022-12-07T06:34:30;21.37;;;14.67;;
2646;SDS011;1333;50.958;6.770;2022-12-07T06:36:55;25.77;;;15.87;;
2646;SDS011;1333;50.958;6.770;2022-12-07T06:39:22;22.40;;;14.80;;
2646;SDS011;1333;50.958;6.770;2022-12-07T06:41:49;22.87;;;14.73;;
2646;SDS011;1333;50.958;6.770;2022-12-07T06:44:17;23.33;;;13.70;;
2646;SDS011;1333;50.958;6.770;2022-12-07T06:46:42;20.47;;;14.70;;
2646;SDS011;1333;50.958;6.770;2022-12-07T06:49:08;21.37;;;13.53;;
2646;SDS011;1333;50.958;6.770;2022-12-07T06:51:34;17.93;;;12.50;;
2646;SDS011;1333;50.958;6.770;2022-12-07T06:54:06;20.53;;;14.53;;
2646;SDS011;1333;50.958;6.770;2022-12-07T06:56:35;29.50;;;15.50;;
2646;SDS011;1333;50.958;6.770;2022-12-07T06:59:00;24.07;;;14.70;;
2646;SDS011;1333;50.958;6.770;2022-12-07T07:01:26;26.40;;;14.70;;
2646;SDS011;1333;50.958;6.770;2022-12-07T07:03:51;22.53;;;15.50;;
2646;SDS011;1333;50.958;6.770;2022-12-07T07:06:17;24.60;;;14.57;;
2646;SDS011;1333;50.958;6.770;2022-12-07T07:08:42;21.67;;;12.43;;
2646;SDS011;1333;50.958;6.770;2022-12-07T07:11:08;20.60;;;13.70;;
2646;SDS011;1333;50.958;6.770;2022-12-07T07:13:35;18.87;;;14.07;;
2646;SDS011;1333;50.958;6.770;2022-12-07T07:16:01;26.47;;;13.10;;
2646;SDS011;1333;50.958;6.770;2022-12-07T07:18:26;20.50;;;13.90;;
2646;SDS011;1333;50.958;6.770;2022-12-07T07:20:53;21.43;;;16.17;;
2646;SDS011;1333;50.958;6.770;2022-12-07T07:23:19;35.57;;;14.23;;
2646;SDS011;1333;50.958;6.770;2022-12-07T07:25:46;24.03;;;17.40;;
2646;SDS011;1333;50.958;6.770;2022-12-07T07:28:11;21.07;;;13.10;;
2646;SDS011;1333;50.958;6.770;2022-12-07T07:30:37;24.33;;;13.83;;
2646;SDS011;1333;50.958;6.770;2022-12-07T07:33:03;26.47;;;15.60;;
2646;SDS011;1333;50.958;6.770;2022-12-07T07:35:29;21.73;;;13.97;;
2646;SDS011;1333;50.958;6.770;2022-12-07T07:37:55;22.40;;;14.50;;
2646;SDS011;1333;50.958;6.770;2022-12-07T07:40:21;20.93;;;12.40;;
2646;SDS011;1333;50.958;6.770;2022-12-07T07:42:50;20.70;;;15.40;;
2646;SDS011;1333;50.958;6.770;2022-12-07T07:45:17;21.97;;;14.53;;
2646;SDS011;1333;50.958;6.770;2022-12-07T07:47:46;20.23;;;12.63;;
2646;SDS011;1333;50.958;6.770;2022-12-07T07:50:12;20.57;;;13.17;;
2646;SDS011;1333;50.958;6.770;2022-12-07T07:52:38;18.70;;;12.20;;
2646;SDS011;1333;50.958;6.770;2022-12-07T07:55:04;16.03;;;10.63;;
2646;SDS011;1333;50.958;6.770;2022-12-07T07:57:30;21.43;;;14.50;;
2646;SDS011;1333;50.958;6.770;2022-12-07T07:59:55;22.73;;;12.67;;
2646;SDS011;1333;50.958;6.770;2022-12-07T08:02:21;16.50;;;11.27;;
2646;SDS011;1333;50.958;6.770;2022-12-07T08:04:47;20.37;;;12.60;;
2646;SDS011;1333;50.958;6.770;2022-12-07T08:07:13;28.17;;;14.50;;
2646;SDS011;1333;50.958;6.770;2022-12-07T08:09:39;19.20;;;12.67;;
2646;SDS011;1333;50.958;6.770;2022-12-07T08:12:06;17.83;;;11.73;;
2646;SDS011;1333;50.958;6.770;2022-12-07T08:14:32;26.60;;;11.53;;
2646;SDS011;1333;50.958;6.770;2022-12-07T08:16:58;16.10;;;11.13;;
2646;SDS011;1333;50.958;6.770;2022-12-07T08:19:24;16.27;;;9.57;;
2646;SDS011;1333;50.958;6.770;2022-12-07T08:21:49;22.00;;;13.63;;
2646;SDS011;1333;50.958;6.770;2022-12-07T08:24:15;16.73;;;11.70;;
2646;SDS011;1333;50.958;6.770;2022-12-07T08:26:41;17.40;;;10.60;;
2646;SDS011;1333;50.958;6.770;2022-12-07T08:29:07;13.47;;;10.37;;
2646;SDS011;1333;50.958;6.770;2022-12-07T08:31:33;15.40;;;9.83;;
2646;SDS011;1333;50.958;6.770;2022-12-07T08:33:58;14.67;;;10.23;;
2646;SDS011;1333;50.958;6.770;2022-12-07T08:36:24;13.60;;;9.20;;
2646;SDS011;1333;50.958;6.770;2022-12-07T08:38:50;17.73;;;12.50;;
2646;SDS011;1333;50.958;6.770;2022-12-07T08:41:15;18.67;;;11.43;;
2646;SDS011;1333;50.958;6.770;2022-12-07T08:43:41;19.30;;;11.30;;
2646;SDS011;1333;50.958;6.770;2022-12-07T08:46:09;15.97;;;9.80;;
2646;SDS011;1333;50.958;6.770;2022-12-07T08:48:43;16.60;;;9.87;;
2646;SDS011;1333;50.958;6.770;2022-12-07T08:51:30;16.50;;;8.93;;
2646;SDS011;1333;50.958;6.770;2022-12-07T08:53:55;16.83;;;8.83;;
2646;SDS011;1333;50.958;6.770;2022-12-07T08:56:24;11.33;;;8.67;;
2646;SDS011;1333;50.958;6.770;2022-12-07T08:58:50;14.63;;;10.20;;
2646;SDS011;1333;50.958;6.770;2022-12-07T09:01:16;16.00;;;9.83;;
2646;SDS011;1333;50.958;6.770;2022-12-07T09:03:42;11.13;;;9.73;;
2646;SDS011;1333;50.958;6.770;2022-12-07T09:06:07;16.40;;;11.23;;
2646;SDS011;1333;50.958;6.770;2022-12-07T09:08:36;14.03;;;10.40;;
2646;SDS011;1333;50.958;6.770;2022-12-07T09:11:05;17.17;;;9.30;;
2646;SDS011;1333;50.958;6.770;2022-12-07T09:13:31;18.20;;;9.20;;
2646;SDS011;1333;50.958;6.770;2022-12-07T09:15:56;13.47;;;8.17;;
2646;SDS011;1333;50.958;6.770;2022-12-07T09:18:22;11.37;;;7.93;;
2646;SDS011;1333;50.958;6.770;2022-12-07T09:20:49;15.93;;;7.70;;
2646;SDS011;1333;50.958;6.770;2022-12-07T09:23:14;14.00;;;8.17;;
2646;SDS011;1333;50.958;6.770;2022-12-07T09:25:40;10.70;;;6.83;;
2646;SDS011;1333;50.958;6.770;2022-12-07T09:28:05;11.00;;;7.80;;
2646;SDS011;1333;50.958;6.770;2022-12-07T09:30:31;10.27;;;7.00;;
2646;SDS011;1333;50.958;6.770;2022-12-07T09:32:56;15.87;;;9.03;;
2646;SDS011;1333;50.958;6.770;2022-12-07T09:35:23;8.83;;;6.50;;
2646;SDS011;1333;50.958;6.770;2022-12-07T09:37:49;13.03;;;9.70;;
2646;SDS011;1333;50.958;6.770;2022-12-07T09:40:15;11.50;;;7.30;;
2646;SDS011;1333;50.958;6.770;2022-12-07T09:42:44;9.00;;;6.60;;
2646;SDS011;1333;50.958;6.770;2022-12-07T09:45:22;14.37;;;7.17;;
2646;SDS011;1333;50.958;6.770;2022-12-07T09:47:50;17.23;;;7.73;;
2646;SDS011;1333;50.958;6.770;2022-12-07T09:50:17;9.43;;;7.23;;
2646;SDS011;1333;50.958;6.770;2022-12-07T09:52:45;21.33;;;8.33;;
2646;SDS011;1333;50.958;6.770;2022-12-07T09:55:14;10.50;;;7.00;;
2646;SDS011;1333;50.958;6.770;2022-12-07T09:57:44;12.67;;;8.20;;
2646;SDS011;1333;50.958;6.770;2022-12-07T10:00:11;11.63;;;7.23;;
2646;SDS011;1333;50.958;6.770;2022-12-07T10:02:40;10.63;;;7.50;;
2646;SDS011;1333;50.958;6.770;2022-12-07T10:05:13;14.70;;;8.17;;
2646;SDS011;1333;50.958;6.770;2022-12-07T10:07:41;16.23;;;9.70;;
2646;SDS011;1333;50.958;6.770;2022-12-07T10:10:12;11.07;;;8.03;;
2646;SDS011;1333;50.958;6.770;2022-12-07T10:12:53;11.40;;;6.50;;
2646;SDS011;1333;50.958;6.770;2022-12-07T10:15:21;13.20;;;7.63;;
2646;SDS011;1333;50.958;6.770;2022-12-07T10:17:48;13.37;;;8.03;;
2646;SDS011;1333;50.958;6.770;2022-12-07T10:20:20;13.87;;;7.50;;
2646;SDS011;1333;50.958;6.770;2022-12-07T10:23:01;8.47;;;6.03;;
2646;SDS011;1333;50.958;6.770;2022-12-07T10:25:33;11.97;;;8.17;;
2646;SDS011;1333;50.958;6.770;2022-12-07T10:28:01;10.87;;;7.20;;
2646;SDS011;1333;50.958;6.770;2022-12-07T10:30:56;12.97;;;6.13;;
2646;SDS011;1333;50.958;6.770;2022-12-07T10:35:56;8.60;;;5.83;;
2646;SDS011;1333;50.958;6.770;2022-12-07T10:38:21;12.90;;;6.17;;
2646;SDS011;1333;50.958;6.770;2022-12-07T10:41:02;7.90;;;5.20;;
2646;SDS011;1333;50.958;6.770;2022-12-07T10:43:29;6.10;;;5.30;;
2646;SDS011;1333;50.958;6.770;2022-12-07T10:46:13;6.87;;;5.20;;
2646;SDS011;1333;50.958;6.770;2022-12-07T10:51:46;7.10;;;5.07;;
2646;SDS011;1333;50.958;6.770;2022-12-07T11:07:54;5.47;;;3.70;;
2646;SDS011;1333;50.958;6.770;2022-12-07T11:15:55;7.10;;;4.30;;
2646;SDS011;1333;50.958;6.770;2022-12-07T11:19:10;7.67;;;4.20;;
2646;SDS011;1333;50.958;6.770;2022-12-07T11:21:59;6.40;;;4.40;;
2646;SDS011;1333;50.958;6.770;2022-12-07T11:24:46;6.00;;;3.90;;
2646;SDS011;1333;50.958;6.770;2022-12-07T11:35:48;6.50;;;5.23;;
2646;SDS011;1333;50.958;6.770;2022-12-07T11:38:52;9.90;;;4.73;;
2646;SDS011;1333;50.958;6.770;2022-12-07T11:41:24;9.47;;;6.23;;
2646;SDS011;1333;50.958;6.770;2022-12-07T11:49:23;10.17;;;6.40;;
2646;SDS011;1333;50.958;6.770;2022-12-07T11:52:02;9.50;;;6.23;;
2646;SDS011;1333;50.958;6.770;2022-12-07T11:54:35;15.83;;;6.57;;
2646;SDS011;1333;50.958;6.770;2022-12-07T11:57:09;9.47;;;7.00;;
2646;SDS011;1333;50.958;6.770;2022-12-07T11:59:51;8.57;;;7.10;;
2646;SDS011;1333;50.958;6.770;2022-12-07T12:02:44;11.43;;;6.57;;
2646;SDS011;1333;50.958;6.770;2022-12-07T12:05:20;11.27;;;6.67;;
2646;SDS011;1333;50.958;6.770;2022-12-07T12:07:51;11.43;;;6.37;;
2646;SDS011;1333;50.958;6.770;2022-12-07T12:10:39;13.30;;;6.43;;
2646;SDS011;1333;50.958;6.770;2022-12-07T12:13:29;9.03;;;5.47;;
2646;SDS011;1333;50.958;6.770;2022-12-07T12:16:34;10.07;;;6.07;;
2646;SDS011;1333;50.958;6.770;2022-12-07T12:19:32;13.20;;;5.50;;
2646;SDS011;1333;50.958;6.770;2022-12-07T12:22:20;10.77;;;5.03;;
2646;SDS011;1333;50.958;6.770;2022-12-07T12:24:49;11.87;;;6.93;;
2646;SDS011;1333;50.958;6.770;2022-12-07T12:27:20;13.47;;;7.00;;
2646;SDS011;1333;50.958;6.770;2022-12-07T12:29:55;7.97;;;5.90;;
2646;SDS011;1333;50.958;6.770;2022-12-07T12:32:28;8.63;;;5.43;;
2646;SDS011;1333;50.958;6.770;2022-12-07T12:35:03;9.27;;;6.10;;
2646;SDS011;1333;50.958;6.770;2022-12-07T12:37:48;7.50;;;5.10;;
2646;SDS011;1333;50.958;6.770;2022-12-07T12:42:52;10.90;;;5.83;;
2646;SDS011;1333;50.958;6.770;2022-12-07T12:45:24;8.60;;;6.37;;
2646;SDS011;1333;50.958;6.770;2022-12-07T12:47:52;12.57;;;6.00;;
2646;SDS011;1333;50.958;6.770;2022-12-07T12:50:29;11.17;;;6.30;;
2646;SDS011;1333;50.958;6.770;2022-12-07T13:00:48;13.87;;;5.93;;
2646;SDS011;1333;50.958;6.770;2022-12-07T13:03:53;8.33;;;5.43;;
2646;SDS011;1333;50.958;6.770;2022-12-07T13:06:31;14.77;;;6.10;;
2646;SDS011;1333;50.958;6.770;2022-12-07T13:09:02;11.63;;;7.37;;
2646;SDS011;1333;50.958;6.770;2022-12-07T13:11:33;7.33;;;5.13;;
2646;SDS011;1333;50.958;6.770;2022-12-07T13:17:08;10.53;;;5.37;;
2646;SDS011;1333;50.958;6.770;2022-12-07T13:19:54;9.20;;;6.23;;
2646;SDS011;1333;50.958;6.770;2022-12-07T13:27:57;9.97;;;4.87;;
2646;SDS011;1333;50.958;6.770;2022-12-07T13:30:32;7.90;;;4.90;;
2646;SDS011;1333;50.958;6.770;2022-12-07T13:33:12;10.47;;;4.90;;
2646;SDS011;1333;50.958;6.770;2022-12-07T13:35:38;9.10;;;6.03;;
2646;SDS011;1333;50.958;6.770;2022-12-07T13:38:05;9.63;;;6.10;;
2646;SDS011;1333;50.958;6.770;2022-12-07T13:40:42;8.57;;;5.50;;
2646;SDS011;1333;50.958;6.770;2022-12-07T13:43:28;14.20;;;5.77;;
2646;SDS011;1333;50.958;6.770;2022-12-07T13:45:57;8.73;;;5.70;;
2646;SDS011;1333;50.958;6.770;2022-12-07T13:48:36;8.13;;;4.67;;
2646;SDS011;1333;50.958;6.770;2022-12-07T13:51:12;12.00;;;4.97;;
2646;SDS011;1333;50.958;6.770;2022-12-07T13:53:47;8.73;;;6.20;;
2646;SDS011;1333;50.958;6.770;2022-12-07T13:56:17;7.20;;;5.37;;
2646;SDS011;1333;50.958;6.770;2022-12-07T13:58:45;9.70;;;5.57;;
2646;SDS011;1333;50.958;6.770;2022-12-07T14:01:11;7.40;;;5.30;;
2646;SDS011;1333;50.958;6.770;2022-12-07T14:03:38;18.83;;;7.00;;
2646;SDS011;1333;50.958;6.770;2022-12-07T14:08:44;8.07;;;6.27;;
2646;SDS011;1333;50.958;6.770;2022-12-07T14:11:14;9.10;;;6.50;;
2646;SDS011;1333;50.958;6.770;2022-12-07T14:13:58;12.90;;;5.40;;
2646;SDS011;1333;50.958;6.770;2022-12-07T14:16:30;9.20;;;5.93;;
2646;SDS011;1333;50.958;6.770;2022-12-07T14:19:02;13.57;;;5.93;;
2646;SDS011;1333;50.958;6.770;2022-12-07T14:21:32;14.40;;;6.77;;
2646;SDS011;1333;50.958;6.770;2022-12-07T14:24:16;12.77;;;7.23;;
2646;SDS011;1333;50.958;6.770;2022-12-07T14:26:47;10.27;;;5.90;;
2646;SDS011;1333;50.958;6.770;2022-12-07T14:29:20;5.53;;;4.10;;
2646;SDS011;1333;50.958;6.770;2022-12-07T14:31:53;8.20;;;5.60;;
2646;SDS011;1333;50.958;6.770;2022-12-07T14:34:19;6.63;;;5.57;;
2646;SDS011;1333;50.958;6.770;2022-12-07T14:36:46;10.23;;;4.53;;
2646;SDS011;1333;50.958;6.770;2022-12-07T14:39:11;10.57;;;7.93;;
2646;SDS011;1333;50.958;6.770;2022-12-07T14:41:37;9.93;;;6.57;;
2646;SDS011;1333;50.958;6.770;2022-12-07T14:44:18;8.23;;;6.10;;
2646;SDS011;1333;50.958;6.770;2022-12-07T14:46:46;11.27;;;4.83;;
2646;SDS011;1333;50.958;6.770;2022-12-07T14:49:12;9.10;;;4.60;;
2646;SDS011;1333;50.958;6.770;2022-12-07T14:51:38;6.97;;;4.90;;
2646;SDS011;1333;50.958;6.770;2022-12-07T14:54:06;6.73;;;5.20;;
2646;SDS011;1333;50.958;6.770;2022-12-07T14:56:37;12.10;;;5.80;;
2646;SDS011;1333;50.958;6.770;2022-12-07T14:59:02;6.77;;;5.27;;
2646;SDS011;1333;50.958;6.770;2022-12-07T15:01:28;9.10;;;5.20;;
2646;SDS011;1333;50.958;6.770;2022-12-07T15:03:53;10.97;;;6.10;;
2646;SDS011;1333;50.958;6.770;2022-12-07T15:06:19;10.27;;;6.33;;
2646;SDS011;1333;50.958;6.770;2022-12-07T15:08:44;11.83;;;6.37;;
2646;SDS011;1333;50.958;6.770;2022-12-07T15:11:13;7.87;;;6.07;;
2646;SDS011;1333;50.958;6.770;2022-12-07T15:13:40;9.03;;;5.83;;
2646;SDS011;1333;50.958;6.770;2022-12-07T15:16:24;7.93;;;5.87;;
2646;SDS011;1333;50.958;6.770;2022-12-07T15:18:49;6.97;;;5.53;;
2646;SDS011;1333;50.958;6.770;2022-12-07T15:21:16;11.70;;;5.70;;
2646;SDS011;1333;50.958;6.770;2022-12-07T15:23:42;10.63;;;5.93;;
2646;SDS011;1333;50.958;6.770;2022-12-07T15:26:07;9.33;;;5.37;;
2646;SDS011;1333;50.958;6.770;2022-12-07T15:28:35;7.17;;;6.00;;
2646;SDS011;1333;50.958;6.770;2022-12-07T15:31:01;5.53;;;4.73;;
2646;SDS011;1333;50.958;6.770;2022-12-07T15:33:26;7.57;;;3.77;;
2646;SDS011;1333;50.958;6.770;2022-12-07T15:35:52;4.90;;;3.67;;
2646;SDS011;1333;50.958;6.770;2022-12-07T15:38:17;6.73;;;4.00;;
2646;SDS011;1333;50.958;6.770;2022-12-07T15:40:46;5.50;;;3.83;;
2646;SDS011;1333;50.958;6.770;2022-12-07T15:43:12;5.33;;;3.80;;
2646;SDS011;1333;50.958;6.770;2022-12-07T15:45:56;5.63;;;4.77;;
2646;SDS011;1333;50.958;6.770;2022-12-07T15:48:22;4.50;;;3.77;;
2646;SDS011;1333;50.958;6.770;2022-12-07T15:50:47;7.13;;;3.83;;
2646;SDS011;1333;50.958;6.770;2022-12-07T15:53:13;8.60;;;6.13;;
2646;SDS011;1333;50.958;6.770;2022-12-07T15:55:39;6.20;;;3.87;;
2646;SDS011;1333;50.958;6.770;2022-12-07T15:58:05;6.03;;;4.33;;
2646;SDS011;1333;50.958;6.770;2022-12-07T16:00:32;6.53;;;3.50;;
2646;SDS011;1333;50.958;6.770;2022-12-07T16:02:57;5.17;;;3.70;;
2646;SDS011;1333;50.958;6.770;2022-12-07T16:05:23;9.80;;;5.07;;
2646;SDS011;1333;50.958;6.770;2022-12-07T16:07:48;6.80;;;3.80;;
2646;SDS011;1333;50.958;6.770;2022-12-07T16:10:14;3.97;;;3.30;;
2646;SDS011;1333;50.958;6.770;2022-12-07T16:12:40;4.73;;;3.33;;
2646;SDS011;1333;50.958;6.770;2022-12-07T16:15:05;3.27;;;2.83;;
2646;SDS011;1333;50.958;6.770;2022-12-07T16:17:31;8.03;;;3.57;;
2646;SDS011;1333;50.958;6.770;2022-12-07T16:19:57;8.40;;;3.03;;
2646;SDS011;1333;50.958;6.770;2022-12-07T16:22:23;7.47;;;3.27;;
2646;SDS011;1333;50.958;6.770;2022-12-07T16:24:48;8.13;;;3.97;;
2646;SDS011;1333;50.958;6.770;2022-12-07T16:27:14;4.50;;;3.67;;
2646;SDS011;1333;50.958;6.770;2022-12-07T16:29:39;3.80;;;3.40;;
2646;SDS011;1333;50.958;6.770;2022-12-07T16:32:05;2.97;;;2.43;;
2646;SDS011;1333;50.958;6.770;2022-12-07T16:34:30;3.50;;;3.20;;
2646;SDS011;1333;50.958;6.770;2022-12-07T16:36:56;8.73;;;3.90;;